sensor_id;sensor_type;location;lat;lon;timestamp;temperature;humidity
25504;DHT22;13410;52.114;5.718;2022-10-16T00:02:19;17.20;99.90
25504;DHT22;13410;52.114;5.718;2022-10-16T00:04:48;17.00;99.90
25504;DHT22;13410;52.114;5.718;2022-10-16T00:07:16;17.00;99.90
25504;DHT22;13410;52.114;5.718;2022-10-16T00:09:45;17.20;99.90
25504;DHT22;13410;52.114;5.718;2022-10-16T00:12:14;17.10;99.90
25504;DHT22;13410;52.114;5.718;2022-10-16T00:14:42;17.00;99.90
25504;DHT22;13410;52.114;5.718;2022-10-16T00:17:09;17.00;99.90
25504;DHT22;13410;52.114;5.718;2022-10-16T00:19:34;17.10;99.90
25504;DHT22;13410;52.114;5.718;2022-10-16T00:22:00;17.00;99.90
25504;DHT22;13410;52.114;5.718;2022-10-16T00:24:26;17.10;99.90
25504;DHT22;13410;52.114;5.718;2022-10-16T00:26:51;17.00;99.90
25504;DHT22;13410;52.114;5.718;2022-10-16T00:29:17;17.10;99.90
25504;DHT22;13410;52.114;5.718;2022-10-16T00:31:43;17.20;99.90
25504;DHT22;13410;52.114;5.718;2022-10-16T00:34:10;17.20;99.90
25504;DHT22;13410;52.114;5.718;2022-10-16T00:36:39;17.20;99.90
25504;DHT22;13410;52.114;5.718;2022-10-16T00:39:05;17.10;99.90
25504;DHT22;13410;52.114;5.718;2022-10-16T00:41:31;17.20;99.90
25504;DHT22;13410;52.114;5.718;2022-10-16T00:44:40;17.10;99.90
25504;DHT22;13410;52.114;5.718;2022-10-16T00:46:50;17.20;99.90
25504;DHT22;13410;52.114;5.718;2022-10-16T00:49:17;17.20;99.90
25504;DHT22;13410;52.114;5.718;2022-10-16T00:51:52;17.20;99.90
25504;DHT22;13410;52.114;5.718;2022-10-16T00:54:32;17.10;99.90
25504;DHT22;13410;52.114;5.718;2022-10-16T00:57:00;17.00;99.90
25504;DHT22;13410;52.114;5.718;2022-10-16T00:59:30;17.10;99.90
25504;DHT22;13410;52.114;5.718;2022-10-16T01:02:00;17.10;99.90
25504;DHT22;13410;52.114;5.718;2022-10-16T01:04:26;17.20;99.90
25504;DHT22;13410;52.114;5.718;2022-10-16T01:13:05;17.40;99.90
25504;DHT22;13410;52.114;5.718;2022-10-16T01:15:54;17.30;99.90
25504;DHT22;13410;52.114;5.718;2022-10-16T01:18:46;17.40;99.90
25504;DHT22;13410;52.114;5.718;2022-10-16T01:21:18;17.30;99.90
25504;DHT22;13410;52.114;5.718;2022-10-16T01:24:06;17.30;99.90
25504;DHT22;13410;52.114;5.718;2022-10-16T01:30:04;17.50;99.90
25504;DHT22;13410;52.114;5.718;2022-10-16T01:32:41;17.30;99.90
25504;DHT22;13410;52.114;5.718;2022-10-16T01:35:32;17.50;99.90
25504;DHT22;13410;52.114;5.718;2022-10-16T01:38:04;17.40;99.90
25504;DHT22;13410;52.114;5.718;2022-10-16T01:40:38;17.40;99.90
25504;DHT22;13410;52.114;5.718;2022-10-16T01:43:26;17.50;99.90
25504;DHT22;13410;52.114;5.718;2022-10-16T01:45:57;17.50;99.90
25504;DHT22;13410;52.114;5.718;2022-10-16T01:48:24;17.50;99.90
25504;DHT22;13410;52.114;5.718;2022-10-16T01:51:05;17.50;99.90
25504;DHT22;13410;52.114;5.718;2022-10-16T01:53:32;17.50;99.90
25504;DHT22;13410;52.114;5.718;2022-10-16T01:56:03;17.50;99.90
25504;DHT22;13410;52.114;5.718;2022-10-16T01:58:35;17.70;99.90
25504;DHT22;13410;52.114;5.718;2022-10-16T02:01:07;17.70;99.90
25504;DHT22;13410;52.114;5.718;2022-10-16T02:03:36;17.50;99.90
25504;DHT22;13410;52.114;5.718;2022-10-16T02:06:03;17.60;99.90
25504;DHT22;13410;52.114;5.718;2022-10-16T02:08:34;17.50;99.90
25504;DHT22;13410;52.114;5.718;2022-10-16T02:11:01;17.60;99.90
25504;DHT22;13410;52.114;5.718;2022-10-16T02:13:34;17.50;99.90
25504;DHT22;13410;52.114;5.718;2022-10-16T02:16:02;17.60;99.90
25504;DHT22;13410;52.114;5.718;2022-10-16T02:18:28;17.50;99.90
25504;DHT22;13410;52.114;5.718;2022-10-16T02:24:17;17.60;99.90
25504;DHT22;13410;52.114;5.718;2022-10-16T02:27:00;17.60;99.90
25504;DHT22;13410;52.114;5.718;2022-10-16T02:29:31;17.60;99.90
25504;DHT22;13410;52.114;5.718;2022-10-16T02:32:02;17.60;99.90
25504;DHT22;13410;52.114;5.718;2022-10-16T02:34:35;17.70;99.90
25504;DHT22;13410;52.114;5.718;2022-10-16T02:37:04;17.60;99.90
25504;DHT22;13410;52.114;5.718;2022-10-16T02:39:33;17.70;99.90
25504;DHT22;13410;52.114;5.718;2022-10-16T02:41:59;17.70;99.90
25504;DHT22;13410;52.114;5.718;2022-10-16T02:44:25;17.60;99.90
25504;DHT22;13410;52.114;5.718;2022-10-16T02:46:53;17.50;99.90
25504;DHT22;13410;52.114;5.718;2022-10-16T02:49:21;17.50;99.90
25504;DHT22;13410;52.114;5.718;2022-10-16T02:51:53;17.50;99.90
25504;DHT22;13410;52.114;5.718;2022-10-16T02:54:22;17.70;99.90
25504;DHT22;13410;52.114;5.718;2022-10-16T02:56:59;17.60;99.90
25504;DHT22;13410;52.114;5.718;2022-10-16T02:59:25;17.50;99.90
25504;DHT22;13410;52.114;5.718;2022-10-16T03:01:50;17.40;99.90
25504;DHT22;13410;52.114;5.718;2022-10-16T03:04:16;17.50;99.90
25504;DHT22;13410;52.114;5.718;2022-10-16T03:06:50;17.40;99.90
25504;DHT22;13410;52.114;5.718;2022-10-16T03:09:21;17.60;99.90
25504;DHT22;13410;52.114;5.718;2022-10-16T03:11:49;17.50;99.90
25504;DHT22;13410;52.114;5.718;2022-10-16T03:14:15;17.40;99.90
25504;DHT22;13410;52.114;5.718;2022-10-16T03:16:41;17.50;99.90
25504;DHT22;13410;52.114;5.718;2022-10-16T03:19:06;17.50;99.90
25504;DHT22;13410;52.114;5.718;2022-10-16T03:21:32;17.40;99.90
25504;DHT22;13410;52.114;5.718;2022-10-16T03:24:01;17.40;99.90
25504;DHT22;13410;52.114;5.718;2022-10-16T03:26:28;17.30;99.90
25504;DHT22;13410;52.114;5.718;2022-10-16T03:28:54;17.60;99.90
25504;DHT22;13410;52.114;5.718;2022-10-16T03:31:20;17.50;99.90
25504;DHT22;13410;52.114;5.718;2022-10-16T03:33:49;17.30;99.90
25504;DHT22;13410;52.114;5.718;2022-10-16T03:36:15;17.40;99.90
25504;DHT22;13410;52.114;5.718;2022-10-16T03:38:40;17.40;99.90
25504;DHT22;13410;52.114;5.718;2022-10-16T03:41:09;17.40;99.90
25504;DHT22;13410;52.114;5.718;2022-10-16T03:43:35;17.40;99.90
25504;DHT22;13410;52.114;5.718;2022-10-16T03:46:04;17.30;99.90
25504;DHT22;13410;52.114;5.718;2022-10-16T03:48:30;17.40;99.90
25504;DHT22;13410;52.114;5.718;2022-10-16T03:50:56;17.30;99.90
25504;DHT22;13410;52.114;5.718;2022-10-16T03:53:21;17.20;99.90
25504;DHT22;13410;52.114;5.718;2022-10-16T03:55:47;17.10;99.90
25504;DHT22;13410;52.114;5.718;2022-10-16T03:58:13;17.30;99.90
25504;DHT22;13410;52.114;5.718;2022-10-16T04:00:50;17.10;99.90
25504;DHT22;13410;52.114;5.718;2022-10-16T04:03:22;17.10;99.90
25504;DHT22;13410;52.114;5.718;2022-10-16T04:05:50;17.20;99.90
25504;DHT22;13410;52.114;5.718;2022-10-16T04:08:16;17.20;99.90
25504;DHT22;13410;52.114;5.718;2022-10-16T04:10:45;17.30;99.90
25504;DHT22;13410;52.114;5.718;2022-10-16T04:13:13;17.10;99.90
25504;DHT22;13410;52.114;5.718;2022-10-16T04:15:42;17.20;99.90
25504;DHT22;13410;52.114;5.718;2022-10-16T04:18:08;17.20;99.90
25504;DHT22;13410;52.114;5.718;2022-10-16T04:20:40;17.10;99.90
25504;DHT22;13410;52.114;5.718;2022-10-16T04:23:08;17.20;99.90
25504;DHT22;13410;52.114;5.718;2022-10-16T04:25:34;17.10;99.90
25504;DHT22;13410;52.114;5.718;2022-10-16T04:28:03;17.00;99.90
25504;DHT22;13410;52.114;5.718;2022-10-16T04:30:31;16.90;99.90
25504;DHT22;13410;52.114;5.718;2022-10-16T04:33:04;16.90;99.90
25504;DHT22;13410;52.114;5.718;2022-10-16T04:35:33;17.10;99.90
25504;DHT22;13410;52.114;5.718;2022-10-16T04:37:59;17.00;99.90
25504;DHT22;13410;52.114;5.718;2022-10-16T04:40:24;17.10;99.90
25504;DHT22;13410;52.114;5.718;2022-10-16T04:42:53;16.90;99.90
25504;DHT22;13410;52.114;5.718;2022-10-16T04:45:21;17.10;99.90
25504;DHT22;13410;52.114;5.718;2022-10-16T04:47:47;17.00;99.90
25504;DHT22;13410;52.114;5.718;2022-10-16T04:50:18;17.00;99.90
25504;DHT22;13410;52.114;5.718;2022-10-16T04:52:43;17.00;99.90
25504;DHT22;13410;52.114;5.718;2022-10-16T04:55:09;17.00;99.90
25504;DHT22;13410;52.114;5.718;2022-10-16T04:57:40;16.90;99.90
25504;DHT22;13410;52.114;5.718;2022-10-16T05:00:09;16.90;99.90
25504;DHT22;13410;52.114;5.718;2022-10-16T05:02:38;16.70;99.90
25504;DHT22;13410;52.114;5.718;2022-10-16T05:05:04;16.90;99.90
25504;DHT22;13410;52.114;5.718;2022-10-16T05:07:29;16.80;99.90
25504;DHT22;13410;52.114;5.718;2022-10-16T05:09:58;16.80;99.90
25504;DHT22;13410;52.114;5.718;2022-10-16T05:12:24;16.90;99.90
25504;DHT22;13410;52.114;5.718;2022-10-16T05:14:49;16.80;99.90
25504;DHT22;13410;52.114;5.718;2022-10-16T05:17:15;16.80;99.90
25504;DHT22;13410;52.114;5.718;2022-10-16T05:19:40;16.80;99.90
25504;DHT22;13410;52.114;5.718;2022-10-16T05:22:08;16.70;99.90
25504;DHT22;13410;52.114;5.718;2022-10-16T05:24:34;16.70;99.90
25504;DHT22;13410;52.114;5.718;2022-10-16T05:27:00;16.60;99.90
25504;DHT22;13410;52.114;5.718;2022-10-16T05:29:25;16.60;99.90
25504;DHT22;13410;52.114;5.718;2022-10-16T05:31:52;16.80;99.90
25504;DHT22;13410;52.114;5.718;2022-10-16T05:34:18;16.60;99.90
25504;DHT22;13410;52.114;5.718;2022-10-16T05:36:44;16.60;99.90
25504;DHT22;13410;52.114;5.718;2022-10-16T05:39:11;16.60;99.90
25504;DHT22;13410;52.114;5.718;2022-10-16T05:41:37;16.60;99.90
25504;DHT22;13410;52.114;5.718;2022-10-16T05:44:09;16.60;99.90
25504;DHT22;13410;52.114;5.718;2022-10-16T05:46:35;16.50;99.90
25504;DHT22;13410;52.114;5.718;2022-10-16T05:49:00;16.50;99.90
25504;DHT22;13410;52.114;5.718;2022-10-16T05:51:26;16.60;99.90
25504;DHT22;13410;52.114;5.718;2022-10-16T05:53:52;16.60;99.90
25504;DHT22;13410;52.114;5.718;2022-10-16T05:56:18;16.50;99.90
25504;DHT22;13410;52.114;5.718;2022-10-16T05:58:44;16.50;99.90
25504;DHT22;13410;52.114;5.718;2022-10-16T06:01:13;16.60;99.90
25504;DHT22;13410;52.114;5.718;2022-10-16T06:03:39;16.60;99.90
25504;DHT22;13410;52.114;5.718;2022-10-16T06:08:35;16.60;99.90
25504;DHT22;13410;52.114;5.718;2022-10-16T06:11:02;16.60;99.90
25504;DHT22;13410;52.114;5.718;2022-10-16T06:13:37;16.70;99.90
25504;DHT22;13410;52.114;5.718;2022-10-16T06:16:04;16.80;99.90
25504;DHT22;13410;52.114;5.718;2022-10-16T06:18:30;16.90;99.90
25504;DHT22;13410;52.114;5.718;2022-10-16T06:20:56;17.10;99.90
25504;DHT22;13410;52.114;5.718;2022-10-16T06:23:23;17.10;99.90
25504;DHT22;13410;52.114;5.718;2022-10-16T06:25:49;16.90;99.90
25504;DHT22;13410;52.114;5.718;2022-10-16T06:28:15;17.10;99.90
25504;DHT22;13410;52.114;5.718;2022-10-16T06:30:41;17.00;99.90
25504;DHT22;13410;52.114;5.718;2022-10-16T06:33:08;16.90;99.90
25504;DHT22;13410;52.114;5.718;2022-10-16T06:35:33;17.10;99.90
25504;DHT22;13410;52.114;5.718;2022-10-16T06:37:59;17.00;99.90
25504;DHT22;13410;52.114;5.718;2022-10-16T06:40:25;17.20;99.90
25504;DHT22;13410;52.114;5.718;2022-10-16T06:42:53;17.20;99.90
25504;DHT22;13410;52.114;5.718;2022-10-16T06:45:19;17.30;99.90
25504;DHT22;13410;52.114;5.718;2022-10-16T06:47:45;17.20;99.90
25504;DHT22;13410;52.114;5.718;2022-10-16T06:50:11;17.20;99.90
25504;DHT22;13410;52.114;5.718;2022-10-16T06:52:36;17.30;99.90
25504;DHT22;13410;52.114;5.718;2022-10-16T06:55:05;17.30;99.90
25504;DHT22;13410;52.114;5.718;2022-10-16T06:57:31;17.40;99.90
25504;DHT22;13410;52.114;5.718;2022-10-16T06:59:56;17.50;99.90
25504;DHT22;13410;52.114;5.718;2022-10-16T07:02:22;17.60;99.90
25504;DHT22;13410;52.114;5.718;2022-10-16T07:04:48;17.70;99.90
25504;DHT22;13410;52.114;5.718;2022-10-16T07:07:16;17.70;99.90
25504;DHT22;13410;52.114;5.718;2022-10-16T07:09:42;17.70;99.90
25504;DHT22;13410;52.114;5.718;2022-10-16T07:12:08;17.80;99.90
25504;DHT22;13410;52.114;5.718;2022-10-16T07:14:34;17.90;99.90
25504;DHT22;13410;52.114;5.718;2022-10-16T07:16:59;17.90;99.90
25504;DHT22;13410;52.114;5.718;2022-10-16T07:19:28;18.10;99.90
25504;DHT22;13410;52.114;5.718;2022-10-16T07:21:54;18.00;99.90
25504;DHT22;13410;52.114;5.718;2022-10-16T07:24:20;18.30;99.90
25504;DHT22;13410;52.114;5.718;2022-10-16T07:26:45;18.30;99.90
25504;DHT22;13410;52.114;5.718;2022-10-16T07:29:18;18.20;99.90
25504;DHT22;13410;52.114;5.718;2022-10-16T07:31:45;18.30;99.90
25504;DHT22;13410;52.114;5.718;2022-10-16T07:34:12;18.20;99.90
25504;DHT22;13410;52.114;5.718;2022-10-16T07:36:38;18.30;99.90
25504;DHT22;13410;52.114;5.718;2022-10-16T07:39:07;18.40;99.90
25504;DHT22;13410;52.114;5.718;2022-10-16T07:41:33;18.30;99.90
25504;DHT22;13410;52.114;5.718;2022-10-16T07:44:02;18.20;99.90
25504;DHT22;13410;52.114;5.718;2022-10-16T07:46:31;18.40;99.90
25504;DHT22;13410;52.114;5.718;2022-10-16T07:48:59;18.50;99.90
25504;DHT22;13410;52.114;5.718;2022-10-16T07:51:25;18.70;99.90
25504;DHT22;13410;52.114;5.718;2022-10-16T07:53:52;18.80;99.90
25504;DHT22;13410;52.114;5.718;2022-10-16T07:56:18;18.90;99.90
25504;DHT22;13410;52.114;5.718;2022-10-16T07:58:44;18.90;99.90
25504;DHT22;13410;52.114;5.718;2022-10-16T08:01:12;19.00;99.90
25504;DHT22;13410;52.114;5.718;2022-10-16T08:03:42;19.00;99.90
25504;DHT22;13410;52.114;5.718;2022-10-16T08:06:08;19.00;99.90
25504;DHT22;13410;52.114;5.718;2022-10-16T08:08:36;19.00;99.90
25504;DHT22;13410;52.114;5.718;2022-10-16T08:11:02;19.00;99.90
25504;DHT22;13410;52.114;5.718;2022-10-16T08:13:30;19.10;99.90
25504;DHT22;13410;52.114;5.718;2022-10-16T08:15:56;19.10;99.90
25504;DHT22;13410;52.114;5.718;2022-10-16T08:18:22;18.90;99.90
25504;DHT22;13410;52.114;5.718;2022-10-16T08:20:47;18.80;99.90
25504;DHT22;13410;52.114;5.718;2022-10-16T08:23:13;19.00;99.90
25504;DHT22;13410;52.114;5.718;2022-10-16T08:25:40;18.90;99.90
25504;DHT22;13410;52.114;5.718;2022-10-16T08:28:08;18.90;99.90
25504;DHT22;13410;52.114;5.718;2022-10-16T08:30:34;19.00;99.90
25504;DHT22;13410;52.114;5.718;2022-10-16T08:33:01;19.10;99.90
25504;DHT22;13410;52.114;5.718;2022-10-16T08:35:26;18.90;99.90
25504;DHT22;13410;52.114;5.718;2022-10-16T08:37:52;19.10;99.90
25504;DHT22;13410;52.114;5.718;2022-10-16T08:40:22;19.10;99.90
25504;DHT22;13410;52.114;5.718;2022-10-16T08:48:21;19.40;99.90
25504;DHT22;13410;52.114;5.718;2022-10-16T08:50:51;19.50;99.90
25504;DHT22;13410;52.114;5.718;2022-10-16T08:53:28;19.60;99.90
25504;DHT22;13410;52.114;5.718;2022-10-16T08:55:55;19.80;99.90
25504;DHT22;13410;52.114;5.718;2022-10-16T08:58:23;19.70;99.90
25504;DHT22;13410;52.114;5.718;2022-10-16T09:00:58;19.60;99.90
25504;DHT22;13410;52.114;5.718;2022-10-16T09:06:09;19.70;99.90
25504;DHT22;13410;52.114;5.718;2022-10-16T09:09:17;19.80;99.90
25504;DHT22;13410;52.114;5.718;2022-10-16T09:18:19;20.00;99.90
25504;DHT22;13410;52.114;5.718;2022-10-16T09:20:59;19.90;99.90
25504;DHT22;13410;52.114;5.718;2022-10-16T09:23:29;20.00;99.90
25504;DHT22;13410;52.114;5.718;2022-10-16T09:25:56;20.10;99.90
25504;DHT22;13410;52.114;5.718;2022-10-16T09:28:23;20.10;99.90
25504;DHT22;13410;52.114;5.718;2022-10-16T09:30:49;20.20;99.90
25504;DHT22;13410;52.114;5.718;2022-10-16T09:33:17;20.10;99.90
25504;DHT22;13410;52.114;5.718;2022-10-16T09:35:56;20.30;99.90
25504;DHT22;13410;52.114;5.718;2022-10-16T09:38:31;20.40;99.90
25504;DHT22;13410;52.114;5.718;2022-10-16T09:40:59;20.30;99.90
25504;DHT22;13410;52.114;5.718;2022-10-16T09:43:28;20.30;99.90
25504;DHT22;13410;52.114;5.718;2022-10-16T09:45:58;20.60;99.90
25504;DHT22;13410;52.114;5.718;2022-10-16T09:48:35;20.80;99.90
25504;DHT22;13410;52.114;5.718;2022-10-16T09:51:06;21.00;99.90
25504;DHT22;13410;52.114;5.718;2022-10-16T09:53:43;21.00;99.90
25504;DHT22;13410;52.114;5.718;2022-10-16T09:56:11;21.10;99.90
25504;DHT22;13410;52.114;5.718;2022-10-16T09:58:42;21.10;99.90
25504;DHT22;13410;52.114;5.718;2022-10-16T10:01:14;21.00;99.90
25504;DHT22;13410;52.114;5.718;2022-10-16T10:03:42;21.30;99.90
25504;DHT22;13410;52.114;5.718;2022-10-16T10:06:28;21.20;99.90
25504;DHT22;13410;52.114;5.718;2022-10-16T10:08:56;21.30;99.90
25504;DHT22;13410;52.114;5.718;2022-10-16T10:16:51;21.20;99.90
25504;DHT22;13410;52.114;5.718;2022-10-16T10:19:20;21.30;99.90
25504;DHT22;13410;52.114;5.718;2022-10-16T10:21:46;21.30;99.90
25504;DHT22;13410;52.114;5.718;2022-10-16T10:24:14;21.20;99.90
25504;DHT22;13410;52.114;5.718;2022-10-16T10:27:08;21.20;99.90
25504;DHT22;13410;52.114;5.718;2022-10-16T10:32:26;21.60;99.90
25504;DHT22;13410;52.114;5.718;2022-10-16T10:51:04;21.80;99.90
25504;DHT22;13410;52.114;5.718;2022-10-16T11:01:17;22.00;99.90
25504;DHT22;13410;52.114;5.718;2022-10-16T11:04:15;22.00;99.90
25504;DHT22;13410;52.114;5.718;2022-10-16T11:09:40;22.40;99.90
25504;DHT22;13410;52.114;5.718;2022-10-16T11:12:14;22.40;99.90
25504;DHT22;13410;52.114;5.718;2022-10-16T11:15:23;22.70;99.90
25504;DHT22;13410;52.114;5.718;2022-10-16T11:20:28;23.10;99.90
25504;DHT22;13410;52.114;5.718;2022-10-16T11:23:07;23.30;99.90
25504;DHT22;13410;52.114;5.718;2022-10-16T11:25:36;23.20;99.90
25504;DHT22;13410;52.114;5.718;2022-10-16T11:28:11;23.20;99.90
25504;DHT22;13410;52.114;5.718;2022-10-16T11:36:10;22.80;99.90
25504;DHT22;13410;52.114;5.718;2022-10-16T11:39:00;22.90;99.90
25504;DHT22;13410;52.114;5.718;2022-10-16T11:49:57;23.80;99.90
25504;DHT22;13410;52.114;5.718;2022-10-16T11:52:30;23.90;99.90
25504;DHT22;13410;52.114;5.718;2022-10-16T11:55:47;23.80;99.90
25504;DHT22;13410;52.114;5.718;2022-10-16T11:58:22;23.90;99.90
25504;DHT22;13410;52.114;5.718;2022-10-16T12:03:29;23.80;99.90
25504;DHT22;13410;52.114;5.718;2022-10-16T12:06:12;23.70;99.90
25504;DHT22;13410;52.114;5.718;2022-10-16T12:08:40;23.80;99.90
25504;DHT22;13410;52.114;5.718;2022-10-16T12:11:08;23.70;99.90
25504;DHT22;13410;52.114;5.718;2022-10-16T12:13:40;23.70;99.90
25504;DHT22;13410;52.114;5.718;2022-10-16T12:18:35;23.50;99.90
25504;DHT22;13410;52.114;5.718;2022-10-16T12:21:01;23.80;99.90
25504;DHT22;13410;52.114;5.718;2022-10-16T12:23:37;23.80;99.90
25504;DHT22;13410;52.114;5.718;2022-10-16T12:26:04;23.90;99.90
25504;DHT22;13410;52.114;5.718;2022-10-16T12:28:32;24.10;99.90
25504;DHT22;13410;52.114;5.718;2022-10-16T12:31:01;24.10;99.90
25504;DHT22;13410;52.114;5.718;2022-10-16T12:33:29;24.20;99.90
25504;DHT22;13410;52.114;5.718;2022-10-16T12:35:57;24.20;99.90
25504;DHT22;13410;52.114;5.718;2022-10-16T12:38:30;24.20;99.90
25504;DHT22;13410;52.114;5.718;2022-10-16T12:41:04;23.80;99.90
25504;DHT22;13410;52.114;5.718;2022-10-16T12:43:37;24.00;99.90
25504;DHT22;13410;52.114;5.718;2022-10-16T12:48:29;23.90;99.90
25504;DHT22;13410;52.114;5.718;2022-10-16T12:50:56;24.00;99.90
25504;DHT22;13410;52.114;5.718;2022-10-16T12:53:26;24.10;99.90
25504;DHT22;13410;52.114;5.718;2022-10-16T12:56:03;24.00;99.90
25504;DHT22;13410;52.114;5.718;2022-10-16T13:01:42;23.60;99.90
25504;DHT22;13410;52.114;5.718;2022-10-16T13:07:38;23.60;99.90
25504;DHT22;13410;52.114;5.718;2022-10-16T13:19:25;23.80;99.90
25504;DHT22;13410;52.114;5.718;2022-10-16T13:22:20;23.70;99.90
25504;DHT22;13410;52.114;5.718;2022-10-16T13:25:51;23.80;99.90
25504;DHT22;13410;52.114;5.718;2022-10-16T13:28:08;23.90;99.90
25504;DHT22;13410;52.114;5.718;2022-10-16T13:30:43;24.00;99.90
25504;DHT22;13410;52.114;5.718;2022-10-16T13:33:24;24.00;99.90
25504;DHT22;13410;52.114;5.718;2022-10-16T13:35:55;24.00;99.90
25504;DHT22;13410;52.114;5.718;2022-10-16T13:38:23;24.00;99.90
25504;DHT22;13410;52.114;5.718;2022-10-16T13:43:36;23.70;99.90
25504;DHT22;13410;52.114;5.718;2022-10-16T13:46:20;23.80;99.90
25504;DHT22;13410;52.114;5.718;2022-10-16T13:49:15;23.90;99.90
25504;DHT22;13410;52.114;5.718;2022-10-16T13:51:54;23.90;99.90
25504;DHT22;13410;52.114;5.718;2022-10-16T13:54:20;23.90;99.90
25504;DHT22;13410;52.114;5.718;2022-10-16T13:56:45;23.90;99.90
25504;DHT22;13410;52.114;5.718;2022-10-16T13:59:35;23.80;99.90
25504;DHT22;13410;52.114;5.718;2022-10-16T14:02:10;23.80;99.90
25504;DHT22;13410;52.114;5.718;2022-10-16T14:04:40;23.80;99.90
25504;DHT22;13410;52.114;5.718;2022-10-16T14:07:23;23.60;99.90
25504;DHT22;13410;52.114;5.718;2022-10-16T14:09:50;23.60;99.90
25504;DHT22;13410;52.114;5.718;2022-10-16T14:12:17;23.40;99.90
25504;DHT22;13410;52.114;5.718;2022-10-16T14:14:48;23.50;99.90
25504;DHT22;13410;52.114;5.718;2022-10-16T14:17:27;23.40;99.90
25504;DHT22;13410;52.114;5.718;2022-10-16T14:19:56;23.50;99.90
25504;DHT22;13410;52.114;5.718;2022-10-16T14:22:36;23.50;99.90
25504;DHT22;13410;52.114;5.718;2022-10-16T14:27:45;23.60;99.90
25504;DHT22;13410;52.114;5.718;2022-10-16T14:32:41;23.80;99.90
25504;DHT22;13410;52.114;5.718;2022-10-16T14:35:23;23.70;99.90
25504;DHT22;13410;52.114;5.718;2022-10-16T14:37:52;23.90;99.90
25504;DHT22;13410;52.114;5.718;2022-10-16T14:40:19;23.70;99.90
25504;DHT22;13410;52.114;5.718;2022-10-16T14:42:46;23.60;99.90
25504;DHT22;13410;52.114;5.718;2022-10-16T14:45:11;23.80;99.90
25504;DHT22;13410;52.114;5.718;2022-10-16T14:47:48;23.90;99.90
25504;DHT22;13410;52.114;5.718;2022-10-16T14:50:14;24.00;99.90
25504;DHT22;13410;52.114;5.718;2022-10-16T14:52:40;23.90;99.90
25504;DHT22;13410;52.114;5.718;2022-10-16T14:55:07;23.90;99.90
25504;DHT22;13410;52.114;5.718;2022-10-16T14:57:34;23.80;99.90
25504;DHT22;13410;52.114;5.718;2022-10-16T15:00:01;23.90;99.90
25504;DHT22;13410;52.114;5.718;2022-10-16T15:02:32;23.80;99.90
25504;DHT22;13410;52.114;5.718;2022-10-16T15:05:10;23.80;99.90
25504;DHT22;13410;52.114;5.718;2022-10-16T15:07:36;23.70;99.90
25504;DHT22;13410;52.114;5.718;2022-10-16T15:10:03;23.70;99.90
25504;DHT22;13410;52.114;5.718;2022-10-16T15:12:28;23.60;99.90
25504;DHT22;13410;52.114;5.718;2022-10-16T15:14:54;23.50;99.90
25504;DHT22;13410;52.114;5.718;2022-10-16T15:17:19;23.60;99.90
25504;DHT22;13410;52.114;5.718;2022-10-16T15:19:45;23.70;99.90
25504;DHT22;13410;52.114;5.718;2022-10-16T15:22:11;23.60;99.90
25504;DHT22;13410;52.114;5.718;2022-10-16T15:24:37;23.70;99.90
25504;DHT22;13410;52.114;5.718;2022-10-16T15:27:03;23.60;99.90
25504;DHT22;13410;52.114;5.718;2022-10-16T15:29:28;23.60;99.90
25504;DHT22;13410;52.114;5.718;2022-10-16T15:31:54;23.50;99.90
25504;DHT22;13410;52.114;5.718;2022-10-16T15:34:20;23.50;99.90
25504;DHT22;13410;52.114;5.718;2022-10-16T15:36:45;23.70;99.90
25504;DHT22;13410;52.114;5.718;2022-10-16T15:39:16;23.50;99.90
25504;DHT22;13410;52.114;5.718;2022-10-16T15:41:43;23.30;99.90
25504;DHT22;13410;52.114;5.718;2022-10-16T15:44:10;23.30;99.90
25504;DHT22;13410;52.114;5.718;2022-10-16T15:46:35;23.00;99.90
25504;DHT22;13410;52.114;5.718;2022-10-16T15:49:02;22.80;99.90
25504;DHT22;13410;52.114;5.718;2022-10-16T15:51:29;22.80;99.90
25504;DHT22;13410;52.114;5.718;2022-10-16T15:53:56;22.60;99.90
25504;DHT22;13410;52.114;5.718;2022-10-16T15:56:22;22.50;99.90
25504;DHT22;13410;52.114;5.718;2022-10-16T15:58:49;22.40;99.90
25504;DHT22;13410;52.114;5.718;2022-10-16T16:01:15;22.30;99.90
25504;DHT22;13410;52.114;5.718;2022-10-16T16:03:41;22.30;99.90
25504;DHT22;13410;52.114;5.718;2022-10-16T16:06:09;22.00;99.90
25504;DHT22;13410;52.114;5.718;2022-10-16T16:08:36;22.00;99.90
25504;DHT22;13410;52.114;5.718;2022-10-16T16:11:07;22.00;99.90
25504;DHT22;13410;52.114;5.718;2022-10-16T16:13:33;21.90;99.90
25504;DHT22;13410;52.114;5.718;2022-10-16T16:15:59;21.80;99.90
25504;DHT22;13410;52.114;5.718;2022-10-16T16:18:25;21.40;99.90
25504;DHT22;13410;52.114;5.718;2022-10-16T16:20:51;21.40;99.90
25504;DHT22;13410;52.114;5.718;2022-10-16T16:23:18;21.40;99.90
25504;DHT22;13410;52.114;5.718;2022-10-16T16:25:44;21.50;99.90
25504;DHT22;13410;52.114;5.718;2022-10-16T16:28:10;21.40;99.90
25504;DHT22;13410;52.114;5.718;2022-10-16T16:30:40;21.50;99.90
25504;DHT22;13410;52.114;5.718;2022-10-16T16:33:05;21.60;99.90
25504;DHT22;13410;52.114;5.718;2022-10-16T16:35:31;21.40;99.90
25504;DHT22;13410;52.114;5.718;2022-10-16T16:37:56;21.30;99.90
25504;DHT22;13410;52.114;5.718;2022-10-16T16:40:22;21.20;99.90
25504;DHT22;13410;52.114;5.718;2022-10-16T16:42:48;21.00;99.90
25504;DHT22;13410;52.114;5.718;2022-10-16T16:45:14;20.90;99.90
25504;DHT22;13410;52.114;5.718;2022-10-16T16:47:40;20.80;99.90
25504;DHT22;13410;52.114;5.718;2022-10-16T16:50:06;20.80;99.90
25504;DHT22;13410;52.114;5.718;2022-10-16T16:52:32;20.70;99.90
25504;DHT22;13410;52.114;5.718;2022-10-16T16:54:58;20.70;99.90
25504;DHT22;13410;52.114;5.718;2022-10-16T16:57:26;20.70;99.90
25504;DHT22;13410;52.114;5.718;2022-10-16T16:59:52;20.70;99.90
25504;DHT22;13410;52.114;5.718;2022-10-16T17:02:21;20.70;99.90
25504;DHT22;13410;52.114;5.718;2022-10-16T17:04:49;20.60;99.90
25504;DHT22;13410;52.114;5.718;2022-10-16T17:07:24;20.60;99.90
25504;DHT22;13410;52.114;5.718;2022-10-16T17:09:54;20.50;99.90
25504;DHT22;13410;52.114;5.718;2022-10-16T17:12:25;20.40;99.90
25504;DHT22;13410;52.114;5.718;2022-10-16T17:14:58;20.30;99.90
25504;DHT22;13410;52.114;5.718;2022-10-16T17:20:47;20.10;99.90
25504;DHT22;13410;52.114;5.718;2022-10-16T17:23:17;19.90;99.90
25504;DHT22;13410;52.114;5.718;2022-10-16T17:25:44;19.70;99.90
25504;DHT22;13410;52.114;5.718;2022-10-16T17:28:11;19.70;99.90
25504;DHT22;13410;52.114;5.718;2022-10-16T17:30:44;19.80;99.90
25504;DHT22;13410;52.114;5.718;2022-10-16T17:33:11;19.60;99.90
25504;DHT22;13410;52.114;5.718;2022-10-16T17:35:44;19.70;99.90
25504;DHT22;13410;52.114;5.718;2022-10-16T17:38:12;19.70;99.90
25504;DHT22;13410;52.114;5.718;2022-10-16T17:40:40;19.90;99.90
25504;DHT22;13410;52.114;5.718;2022-10-16T17:43:22;19.90;99.90